createdAt,value
2018-06-09T00:00:23.106Z,89.05
2018-06-09T00:01:23.268Z,88.95
2018-06-09T00:02:23.439Z,88.38
2018-06-09T00:03:23.533Z,88.38
2018-06-09T00:04:23.562Z,88.47
2018-06-09T00:05:23.652Z,87.70
2018-06-09T00:06:23.761Z,87.70
2018-06-09T00:07:23.924Z,88.18
2018-06-09T00:08:24.221Z,88.43
2018-06-09T00:09:24.058Z,88.28
2018-06-09T00:10:24.160Z,87.90
2018-06-09T00:11:24.266Z,87.60
2018-06-09T00:12:24.367Z,87.85
2018-06-09T00:13:24.475Z,87.85
2018-06-09T00:14:24.703Z,88.14
2018-06-09T00:15:24.816Z,88.33
2018-06-09T00:16:24.779Z,88.33
2018-06-09T00:17:24.921Z,88.53
2018-06-09T00:18:25.145Z,88.53
2018-06-09T00:19:25.128Z,88.53
2018-06-09T00:20:25.256Z,88.53
2018-06-09T00:21:25.500Z,88.62
2018-06-09T00:22:25.364Z,89.10
2018-06-09T00:23:25.558Z,89.20
2018-06-09T00:24:25.524Z,88.62
2018-06-09T00:25:25.659Z,89.35
2018-06-09T00:26:25.749Z,89.29
2018-06-09T00:27:25.836Z,88.62
2018-06-09T00:28:25.910Z,88.81
2018-06-09T00:29:26.058Z,89.01
2018-06-09T00:30:26.160Z,88.62
2018-06-09T00:31:26.370Z,89.01
2018-06-09T00:32:26.366Z,89.20
2018-06-09T00:33:26.564Z,89.44
2018-06-09T00:34:26.579Z,89.15
2018-06-09T00:35:26.683Z,89.58
2018-06-09T00:36:26.893Z,89.35
2018-06-09T00:37:26.967Z,89.73
2018-06-09T00:38:27.122Z,89.44
2018-06-09T00:39:27.200Z,89.15
2018-06-09T00:40:27.365Z,89.44
2018-06-09T00:41:27.366Z,89.54
2018-06-09T00:42:27.464Z,89.25
2018-06-09T00:43:27.575Z,88.67
2018-06-09T00:44:27.673Z,89.06
2018-06-09T00:45:27.768Z,89.15
2018-06-09T00:46:27.872Z,89.35
2018-06-09T00:47:27.992Z,89.25
2018-06-09T00:48:28.097Z,89.54
2018-06-09T00:49:28.197Z,89.44
2018-06-09T00:50:28.323Z,89.54
2018-06-09T00:51:28.424Z,89.64
2018-06-09T00:52:28.533Z,89.54
2018-06-09T00:53:28.644Z,89.25
2018-06-09T00:54:28.744Z,89.25
2018-06-09T00:55:28.835Z,89.25
2018-06-09T00:56:28.935Z,89.54
2018-06-09T00:57:29.037Z,89.83
2018-06-09T00:58:29.130Z,90.02
2018-06-09T00:59:29.228Z,89.44
2018-06-09T01:00:29.330Z,89.06
2018-06-09T01:01:29.428Z,89.01
2018-06-09T01:02:29.529Z,89.44
2018-06-09T01:03:29.644Z,89.40
2018-06-09T01:04:29.740Z,89.78
2018-06-09T01:05:29.844Z,89.69
2018-06-09T01:06:29.950Z,89.69
2018-06-09T01:07:30.065Z,89.69
2018-06-09T01:08:30.163Z,90.65
2018-06-09T01:09:30.281Z,90.45
2018-06-09T01:10:30.371Z,90.36
2018-06-09T01:11:30.467Z,90.55
2018-06-09T01:12:30.569Z,90.17
2018-06-09T01:13:30.672Z,90.07
2018-06-09T01:14:30.772Z,90.36
2018-06-09T01:15:30.872Z,90.36
2018-06-09T01:16:30.968Z,90.07
2018-06-09T01:17:31.063Z,90.36
2018-06-09T01:18:31.168Z,90.17
2018-06-09T01:19:31.273Z,90.55
2018-06-09T01:20:31.365Z,90.75
2018-06-09T01:21:31.466Z,90.26
2018-06-09T01:22:31.564Z,90.55
2018-06-09T01:23:31.668Z,90.36
2018-06-09T01:24:31.768Z,90.45
2018-06-09T01:25:31.866Z,90.75
2018-06-09T01:26:31.967Z,90.17
2018-06-09T01:27:32.063Z,90.26
2018-06-09T01:28:32.170Z,90.36
2018-06-09T01:29:32.271Z,90.07
2018-06-09T01:30:32.370Z,89.98
2018-06-09T01:31:32.473Z,90.36
2018-06-09T01:32:32.576Z,90.36
2018-06-09T01:33:32.676Z,90.26
2018-06-09T01:34:32.779Z,89.88
2018-06-09T01:35:32.878Z,90.45
2018-06-09T01:36:32.981Z,90.36
2018-06-09T01:37:33.079Z,90.94
2018-06-09T01:38:33.180Z,90.84
2018-06-09T01:39:33.282Z,90.94
2018-06-09T01:40:33.385Z,90.65
2018-06-09T01:41:33.488Z,91.03
2018-06-09T01:42:33.588Z,90.65
2018-06-09T01:43:33.688Z,90.45
2018-06-09T01:44:33.788Z,90.84
2018-06-09T01:45:33.891Z,90.60
2018-06-09T01:46:33.993Z,90.65
2018-06-09T01:47:34.091Z,90.75
2018-06-09T01:48:34.193Z,90.12
2018-06-09T01:49:34.293Z,90.17
2018-06-09T01:50:34.394Z,90.80
2018-06-09T01:51:34.493Z,90.51
2018-06-09T01:52:34.594Z,90.80
2018-06-09T01:53:34.695Z,90.89
2018-06-09T01:54:34.793Z,90.99
2018-06-09T01:55:34.894Z,91.28
2018-06-09T01:56:35.002Z,90.80
2018-06-09T01:57:35.108Z,90.80
2018-06-09T01:58:35.209Z,90.70
2018-06-09T01:59:35.309Z,90.41
2018-06-09T02:00:35.410Z,90.41
2018-06-09T02:01:35.509Z,90.31
2018-06-09T02:02:35.613Z,90.99
2018-06-09T02:03:35.714Z,90.80
2018-06-09T02:04:35.822Z,90.80
2018-06-09T02:05:35.922Z,90.70
2018-06-09T02:06:36.027Z,90.89
2018-06-09T02:07:36.124Z,90.80
2018-06-09T02:08:36.227Z,90.22
2018-06-09T02:09:36.329Z,90.51
2018-06-09T02:10:36.427Z,90.51
2018-06-09T02:11:36.533Z,90.22
2018-06-09T02:12:36.665Z,90.22
2018-06-09T02:13:36.732Z,90.22
2018-06-09T02:14:36.832Z,90.41
2018-06-09T02:15:36.934Z,90.22
2018-06-09T02:16:37.034Z,90.70
2018-06-09T02:17:37.136Z,90.41
2018-06-09T02:18:37.243Z,90.22
2018-06-09T02:19:37.345Z,90.99
2018-06-09T02:20:37.445Z,90.41
2018-06-09T02:21:37.546Z,90.41
2018-06-09T02:22:37.645Z,90.12
2018-06-09T02:23:37.746Z,90.12
2018-06-09T02:24:37.845Z,90.89
2018-06-09T02:25:37.950Z,91.18
2018-06-09T02:26:38.055Z,90.41
2018-06-09T02:27:38.154Z,90.70
2018-06-09T02:28:38.254Z,91.08
2018-06-09T02:29:38.355Z,90.80
2018-06-09T02:30:38.458Z,90.80
2018-06-09T02:31:38.558Z,90.80
2018-06-09T02:32:38.668Z,90.60
2018-06-09T02:33:38.776Z,90.80
2018-06-09T02:34:38.867Z,90.89
2018-06-09T02:35:38.968Z,90.80
2018-06-09T02:36:39.068Z,90.41
2018-06-09T02:37:39.168Z,90.60
2018-06-09T02:38:39.268Z,90.22
2018-06-09T02:39:39.382Z,90.80
2018-06-09T02:40:39.480Z,90.22
2018-06-09T02:41:39.583Z,90.41
2018-06-09T02:42:39.682Z,90.80
2018-06-09T02:43:39.784Z,90.12
2018-06-09T02:44:39.885Z,90.60
2018-06-09T02:45:39.986Z,90.80
2018-06-09T02:46:40.106Z,90.70
2018-06-09T02:47:40.193Z,90.66
2018-06-09T02:48:40.294Z,90.84
2018-06-09T02:49:40.391Z,90.99
2018-06-09T02:50:40.489Z,90.70
2018-06-09T02:51:40.593Z,90.17
2018-06-09T02:52:40.695Z,90.84
2018-06-09T02:53:40.807Z,90.94
2018-06-09T02:54:40.907Z,90.60
2018-06-09T02:55:41.006Z,90.51
2018-06-09T02:56:41.107Z,90.94
2018-06-09T02:57:41.206Z,90.94
2018-06-09T02:58:41.306Z,90.89
2018-06-09T02:59:41.408Z,90.99
2018-06-09T03:00:41.521Z,90.66
2018-06-09T03:01:41.607Z,90.17
2018-06-09T03:02:41.692Z,90.56
2018-06-09T03:03:41.852Z,90.89
2018-06-09T03:04:41.911Z,90.75
2018-06-09T03:05:42.016Z,90.56
2018-06-09T03:06:42.155Z,90.75
2018-06-09T03:07:42.364Z,90.08
2018-06-09T03:08:42.387Z,90.75
2018-06-09T03:09:42.452Z,90.75
2018-06-09T03:10:42.657Z,90.75
2018-06-09T03:11:42.677Z,90.66
2018-06-09T03:12:43.034Z,90.37
2018-06-09T03:13:42.855Z,90.56
2018-06-09T03:14:43.197Z,91.23
2018-06-09T03:15:43.218Z,91.13
2018-06-09T03:16:43.195Z,91.52
2018-06-09T03:17:43.400Z,91.90
2018-06-09T03:18:43.658Z,91.61
2018-06-09T03:19:43.445Z,91.71
2018-06-09T03:20:43.708Z,92.10
2018-06-09T03:21:43.787Z,92.00
2018-06-09T03:22:44.041Z,92.00
2018-06-09T03:23:43.861Z,92.00
2018-06-09T03:24:44.085Z,91.52
2018-06-09T03:25:44.147Z,91.71
2018-06-09T03:26:44.302Z,91.61
2018-06-09T03:27:44.476Z,91.04
2018-06-09T03:28:44.436Z,91.04
2018-06-09T03:29:44.796Z,91.13
2018-06-09T03:30:44.995Z,90.99
2018-06-09T03:31:44.851Z,91.23
2018-06-09T03:32:44.940Z,90.80
2018-06-09T03:33:45.091Z,90.80
2018-06-09T03:34:45.226Z,90.80
2018-06-09T03:35:45.206Z,90.80
2018-06-09T03:36:45.355Z,90.89
2018-06-09T03:37:45.507Z,90.70
2018-06-09T03:38:45.609Z,91.08
2018-06-09T03:39:46.612Z,90.70
2018-06-09T03:40:45.812Z,90.22
2018-06-09T03:41:46.360Z,90.60
2018-06-09T03:42:46.049Z,90.41
2018-06-09T03:43:46.193Z,90.31
2018-06-09T03:44:46.564Z,90.60
2018-06-09T03:45:46.418Z,90.60
2018-06-09T03:46:47.272Z,90.03
2018-06-09T03:47:46.691Z,90.51
2018-06-09T03:48:46.937Z,90.03
2018-06-09T03:49:46.705Z,89.93
2018-06-09T03:50:47.380Z,89.93
2018-06-09T03:51:46.950Z,90.60
2018-06-09T03:52:47.777Z,89.54
2018-06-09T03:53:47.529Z,89.54
2018-06-09T03:54:47.456Z,89.64
2018-06-09T03:55:47.456Z,89.78
2018-06-09T03:56:47.608Z,89.54
2018-06-09T03:57:47.751Z,89.59
2018-06-09T03:58:47.855Z,89.69
2018-06-09T03:59:48.001Z,89.50
2018-06-09T04:00:48.279Z,89.40
2018-06-09T04:01:48.260Z,89.50
2018-06-09T04:02:48.424Z,89.11
2018-06-09T04:03:48.395Z,89.21
2018-06-09T04:04:48.621Z,89.01
2018-06-09T04:05:48.647Z,88.73
2018-06-09T04:06:48.771Z,88.53
2018-06-09T04:07:48.781Z,88.82
2018-06-09T04:08:48.879Z,88.82
2018-06-09T04:09:49.066Z,89.01
2018-06-09T04:10:49.250Z,88.63
2018-06-09T04:11:49.297Z,89.01
2018-06-09T04:12:49.440Z,88.39
2018-06-09T04:13:49.532Z,88.96
2018-06-09T04:14:49.709Z,88.39
2018-06-09T04:15:49.809Z,88.48
2018-06-09T04:16:49.878Z,88.48
2018-06-09T04:17:49.855Z,88.48
2018-06-09T04:18:50.020Z,88.10
2018-06-09T04:19:50.381Z,88.10
2018-06-09T04:20:50.142Z,87.90
2018-06-09T04:21:50.390Z,87.90
2018-06-09T04:22:50.394Z,87.62
2018-06-09T04:23:50.447Z,87.81
2018-06-09T04:24:50.551Z,87.33
2018-06-09T04:25:50.723Z,87.62
2018-06-09T04:26:50.771Z,87.71
2018-06-09T04:27:50.896Z,87.62
2018-06-09T04:28:51.009Z,88.00
2018-06-09T04:29:51.199Z,88.19
2018-06-09T04:30:51.168Z,87.62
2018-06-09T04:31:51.335Z,88.19
2018-06-09T04:32:51.438Z,87.71
2018-06-09T04:33:51.777Z,88.00
2018-06-09T04:34:51.718Z,88.10
2018-06-09T04:35:51.686Z,87.90
2018-06-09T04:36:51.820Z,88.29
2018-06-09T04:37:52.041Z,88.29
2018-06-09T04:38:52.095Z,88.29
2018-06-09T04:39:52.188Z,89.06
2018-06-09T04:40:52.241Z,88.67
2018-06-09T04:41:52.338Z,88.87
2018-06-09T04:42:52.514Z,88.96
2018-06-09T04:43:52.481Z,88.24
2018-06-09T04:44:52.896Z,88.29
2018-06-09T04:45:52.625Z,87.85
2018-06-09T04:46:52.805Z,87.95
2018-06-09T04:47:52.902Z,87.66
2018-06-09T04:48:52.928Z,87.08
2018-06-09T04:49:53.050Z,86.89
2018-06-09T04:50:53.151Z,87.46
2018-06-09T04:51:53.358Z,87.46
2018-06-09T04:52:53.412Z,87.08
2018-06-09T04:53:53.627Z,86.79
2018-06-09T04:54:53.631Z,86.12
2018-06-09T04:55:53.632Z,86.69
2018-06-09T04:56:53.767Z,86.51
2018-06-09T04:57:53.905Z,86.79
2018-06-09T04:58:53.907Z,86.89
2018-06-09T04:59:54.088Z,86.69
2018-06-09T05:00:54.285Z,86.79
2018-06-09T05:01:54.711Z,86.02
2018-06-09T05:02:54.449Z,87.08
2018-06-09T05:03:54.766Z,86.41
2018-06-09T05:04:54.662Z,87.37
2018-06-09T05:05:54.679Z,86.99
2018-06-09T05:06:54.883Z,88.04
2018-06-09T05:07:54.870Z,87.46
2018-06-09T05:08:54.988Z,88.39
2018-06-09T05:09:55.094Z,88.33
2018-06-09T05:10:55.228Z,88.14
2018-06-09T05:11:55.390Z,87.85
2018-06-09T05:12:55.807Z,87.95
2018-06-09T05:13:55.647Z,87.32
2018-06-09T05:14:55.756Z,87.12
2018-06-09T05:15:56.148Z,86.74
2018-06-09T05:16:56.142Z,86.45
2018-06-09T05:17:56.189Z,86.07
2018-06-09T05:18:56.163Z,86.49
2018-06-09T05:19:56.296Z,85.91
2018-06-09T05:20:56.718Z,86.11
2018-06-09T05:21:56.479Z,85.63
2018-06-09T05:22:56.584Z,84.99
2018-06-09T05:23:56.706Z,84.47
2018-06-09T05:24:56.813Z,84.56
2018-06-09T05:25:56.950Z,85.19
2018-06-09T05:26:57.433Z,85.19
2018-06-09T05:27:57.273Z,84.90
2018-06-09T05:28:57.280Z,84.27
2018-06-09T05:29:57.516Z,83.78
2018-06-09T05:30:57.418Z,83.53
2018-06-09T05:31:57.643Z,82.38
2018-06-09T05:32:57.619Z,81.60
2018-06-09T05:33:57.717Z,81.02
2018-06-09T05:34:57.784Z,81.22
2018-06-09T05:35:57.843Z,80.35
2018-06-09T05:36:57.924Z,81.26
2018-06-09T05:37:58.054Z,80.26
2018-06-09T05:38:58.167Z,80.35
2018-06-09T05:39:58.421Z,80.26
2018-06-09T05:40:58.488Z,80.16
2018-06-09T05:41:58.459Z,80.06
2018-06-09T05:42:58.589Z,80.35
2018-06-09T05:43:58.700Z,80.54
2018-06-09T05:44:58.804Z,80.74
2018-06-09T05:45:58.896Z,81.02
2018-06-09T05:46:58.996Z,80.93
2018-06-09T05:47:59.097Z,81.12
2018-06-09T05:48:59.222Z,81.02
2018-06-09T05:49:59.318Z,80.45
2018-06-09T05:50:59.419Z,80.16
2018-06-09T05:51:59.529Z,79.77
2018-06-09T05:52:59.626Z,79.14
2018-06-09T05:53:59.743Z,79.24
2018-06-09T05:54:59.843Z,78.75
2018-06-09T05:55:59.933Z,78.08
2018-06-09T05:57:00.035Z,77.98
2018-06-09T05:58:00.138Z,78.02
2018-06-09T05:59:00.263Z,77.73
2018-06-09T06:00:00.390Z,77.92
2018-06-09T06:01:00.501Z,77.44
2018-06-09T06:02:00.598Z,77.83
2018-06-09T06:03:00.759Z,77.83
2018-06-09T06:04:00.831Z,77.57
2018-06-09T06:05:00.907Z,76.26
2018-06-09T06:06:01.021Z,75.48
2018-06-09T06:07:01.126Z,75.20
2018-06-09T06:08:01.228Z,73.78
2018-06-09T06:09:01.339Z,73.30
2018-06-09T06:10:01.438Z,72.75
2018-06-09T06:11:01.546Z,71.72
2018-06-09T06:12:01.648Z,71.28
2018-06-09T06:13:01.757Z,70.11
2018-06-09T06:14:01.861Z,69.18
2018-06-09T06:15:01.965Z,68.82
2018-06-09T06:16:02.084Z,67.66
2018-06-09T06:17:02.196Z,66.89
2018-06-09T06:18:02.335Z,66.50
2018-06-09T06:19:02.407Z,66.02
2018-06-09T06:20:02.517Z,66.69
2018-06-09T06:21:02.619Z,66.60
2018-06-09T06:22:02.726Z,66.40
2018-06-09T06:23:02.833Z,66.95
2018-06-09T06:24:02.940Z,68.27
2018-06-09T06:25:03.049Z,69.40
2018-06-09T06:26:03.162Z,69.31
2018-06-09T06:27:03.263Z,69.79
2018-06-09T06:28:03.371Z,69.98
2018-06-09T06:29:03.477Z,69.92
2018-06-09T06:30:03.583Z,69.24
2018-06-09T06:31:03.687Z,69.34
2018-06-09T06:32:03.792Z,68.08
2018-06-09T06:33:03.893Z,67.60
2018-06-09T06:34:04.000Z,67.50
2018-06-09T06:35:04.107Z,67.40
2018-06-09T06:36:04.215Z,67.40
2018-06-09T06:37:04.319Z,66.66
2018-06-09T06:38:04.424Z,67.44
2018-06-09T06:39:04.533Z,66.75
2018-06-09T06:40:04.639Z,66.40
2018-06-09T06:41:04.744Z,65.92
2018-06-09T06:42:04.853Z,65.82
2018-06-09T06:43:04.957Z,66.11
2018-06-09T06:44:05.065Z,65.82
2018-06-09T06:45:05.204Z,66.02
2018-06-09T06:46:05.278Z,66.40
2018-06-09T06:47:05.391Z,66.89
2018-06-09T06:48:05.500Z,67.37
2018-06-09T06:49:05.605Z,67.76
2018-06-09T06:50:05.712Z,67.66
2018-06-09T06:51:05.822Z,68.34
2018-06-09T06:52:05.926Z,67.66
2018-06-09T06:53:06.031Z,67.08
2018-06-09T06:54:06.148Z,67.27
2018-06-09T06:55:06.236Z,67.27
2018-06-09T06:56:06.340Z,67.76
2018-06-09T06:57:06.447Z,67.66
2018-06-09T06:58:06.555Z,68.54
2018-06-09T06:59:06.660Z,68.15
2018-06-09T07:00:06.767Z,68.12
2018-06-09T07:01:06.873Z,68.12
2018-06-09T07:02:07.027Z,68.02
2018-06-09T07:03:07.087Z,68.21
2018-06-09T07:04:07.194Z,68.99
2018-06-09T07:05:07.296Z,68.95
2018-06-09T07:06:07.404Z,69.27
2018-06-09T07:07:07.510Z,69.95
2018-06-09T07:08:07.618Z,69.85
2018-06-09T07:09:07.728Z,69.27
2018-06-09T07:10:07.833Z,70.54
2018-06-09T07:11:07.942Z,70.54
2018-06-09T07:12:08.046Z,69.18
2018-06-09T07:13:08.153Z,69.18
2018-06-09T07:14:08.258Z,69.08
2018-06-09T07:15:08.363Z,69.12
2018-06-09T07:16:08.470Z,68.92
2018-06-09T07:17:08.573Z,67.37
2018-06-09T07:18:08.675Z,67.08
2018-06-09T07:19:08.781Z,66.44
2018-06-09T07:20:08.886Z,65.27
2018-06-09T07:21:08.994Z,65.17
2018-06-09T07:22:09.149Z,60.81
2018-06-09T07:23:09.207Z,61.58
2018-06-09T07:24:09.314Z,61.19
2018-06-09T07:25:09.420Z,60.64
2018-06-09T07:26:09.527Z,60.55
2018-06-09T07:27:09.635Z,61.42
2018-06-09T07:28:09.746Z,61.32
2018-06-09T07:29:09.848Z,60.77
2018-06-09T07:30:09.957Z,58.41
2018-06-09T07:31:10.071Z,58.51
2018-06-09T07:32:10.175Z,57.44
2018-06-09T07:33:10.282Z,56.67
2018-06-09T07:34:10.390Z,56.76
2018-06-09T07:35:10.552Z,57.06
2018-06-09T07:36:10.612Z,56.96
2018-06-09T07:37:10.713Z,57.34
2018-06-09T07:38:10.820Z,57.06
2018-06-09T07:39:10.924Z,56.28
2018-06-09T07:40:11.033Z,56.74
2018-06-09T07:41:11.138Z,57.03
2018-06-09T07:42:11.246Z,58.58
2018-06-09T07:43:11.356Z,58.58
2018-06-09T07:44:11.461Z,57.70
2018-06-09T07:45:11.568Z,58.09
2018-06-09T07:46:11.682Z,57.70
2018-06-09T07:47:12.363Z,58.00
2018-06-09T07:48:12.672Z,59.74
2018-06-09T07:49:12.011Z,58.77
2018-06-09T07:50:12.274Z,60.13
2018-06-09T07:51:12.746Z,59.55
2018-06-09T07:52:12.438Z,58.77
2018-06-09T07:53:12.475Z,58.77
2018-06-09T07:54:12.918Z,58.87
2018-06-09T07:55:13.892Z,58.45
2018-06-09T07:56:12.871Z,59.33
2018-06-09T07:57:13.060Z,59.23
2018-06-09T07:58:13.661Z,59.36
2018-06-09T07:59:13.632Z,58.87
2018-06-09T08:00:13.575Z,58.87
2018-06-09T08:01:13.316Z,57.64
2018-06-09T08:02:13.430Z,56.76
2018-06-09T08:03:13.895Z,56.86
2018-06-09T08:04:13.790Z,56.01
2018-06-09T08:05:14.420Z,56.11
2018-06-09T08:06:13.960Z,56.52
2018-06-09T08:07:13.915Z,56.24
2018-06-09T08:08:14.078Z,56.26
2018-06-09T08:09:14.438Z,56.07
2018-06-09T08:10:14.280Z,56.16
2018-06-09T08:11:14.616Z,55.49
2018-06-09T08:12:14.510Z,56.00
2018-06-09T08:13:14.528Z,56.10
2018-06-09T08:14:15.060Z,55.32
2018-06-09T08:15:14.844Z,54.08
2018-06-09T08:16:14.922Z,53.30
2018-06-09T08:17:14.946Z,54.18
2018-06-09T08:18:15.433Z,54.08
2018-06-09T08:19:15.216Z,53.69
2018-06-09T08:20:15.181Z,53.23
2018-06-09T08:21:15.291Z,53.52
2018-06-09T08:22:15.449Z,52.55
2018-06-09T08:23:15.633Z,51.48
2018-06-09T08:24:15.615Z,52.75
2018-06-09T08:25:15.779Z,52.94
2018-06-09T08:26:16.011Z,52.06
2018-06-09T08:27:16.049Z,52.45
2018-06-09T08:28:16.286Z,51.51
2018-06-09T08:29:16.417Z,51.90
2018-06-09T08:30:16.366Z,51.51
2018-06-09T08:31:16.688Z,50.63
2018-06-09T08:32:17.253Z,51.02
2018-06-09T08:33:16.729Z,51.70
2018-06-09T08:34:16.857Z,51.43
2018-06-09T08:35:16.896Z,50.65
2018-06-09T08:36:16.895Z,50.65
2018-06-09T08:37:16.880Z,50.85
2018-06-09T08:38:17.136Z,50.26
2018-06-09T08:39:17.147Z,49.49
2018-06-09T08:40:17.443Z,49.99
2018-06-09T08:41:17.377Z,50.38
2018-06-09T08:42:17.675Z,50.09
2018-06-09T08:43:17.684Z,50.19
2018-06-09T08:44:17.787Z,50.51
2018-06-09T08:45:18.041Z,50.29
2018-06-09T08:46:18.028Z,50.09
2018-06-09T08:47:18.672Z,49.22
2018-06-09T08:48:18.294Z,49.99
2018-06-09T08:49:18.431Z,48.73
2018-06-09T08:50:18.550Z,48.66
2018-06-09T08:51:18.556Z,48.66
2018-06-09T08:52:18.803Z,48.85
2018-06-09T08:53:19.337Z,48.75
2018-06-09T08:54:19.067Z,48.66
2018-06-09T08:55:19.045Z,49.15
2018-06-09T08:56:19.037Z,49.15
2018-06-09T08:57:19.211Z,49.24
2018-06-09T08:58:19.264Z,48.88
2018-06-09T08:59:19.235Z,49.17
2018-06-09T09:00:19.591Z,48.88
2018-06-09T09:01:19.531Z,49.56
2018-06-09T09:02:19.630Z,49.56
2018-06-09T09:03:19.758Z,47.71
2018-06-09T09:04:19.918Z,47.80
2018-06-09T09:05:19.945Z,48.22
2018-06-09T09:06:20.139Z,49.29
2018-06-09T09:07:20.199Z,48.71
2018-06-09T09:08:20.185Z,48.12
2018-06-09T09:09:20.397Z,48.32
2018-06-09T09:10:20.397Z,46.85
2018-06-09T09:11:20.561Z,45.48
2018-06-09T09:12:20.710Z,46.36
2018-06-09T09:13:20.849Z,45.58
2018-06-09T09:14:20.915Z,45.58
2018-06-09T09:15:21.033Z,45.58
2018-06-09T09:16:21.472Z,45.97
2018-06-09T09:17:21.395Z,45.58
2018-06-09T09:18:21.436Z,44.48
2018-06-09T09:19:21.549Z,45.26
2018-06-09T09:20:21.605Z,45.46
2018-06-09T09:21:21.975Z,45.95
2018-06-09T09:22:21.888Z,45.95
2018-06-09T09:23:22.028Z,46.53
2018-06-09T09:24:22.150Z,46.83
2018-06-09T09:25:22.357Z,45.36
2018-06-09T09:26:22.405Z,45.75
2018-06-09T09:27:22.590Z,45.56
2018-06-09T09:28:22.598Z,46.34
2018-06-09T09:29:22.702Z,46.61
2018-06-09T09:30:22.758Z,46.80
2018-06-09T09:31:22.996Z,47.09
2018-06-09T09:32:22.919Z,47.41
2018-06-09T09:33:23.032Z,48.00
2018-06-09T09:34:23.126Z,47.22
2018-06-09T09:35:23.371Z,47.41
2018-06-09T09:36:23.524Z,47.12
2018-06-09T09:37:23.620Z,47.51
2018-06-09T09:38:23.651Z,48.75
2018-06-09T09:39:23.776Z,48.95
2018-06-09T09:40:23.883Z,48.85
2018-06-09T09:41:24.068Z,49.17
2018-06-09T09:42:24.106Z,48.88
2018-06-09T09:43:24.218Z,49.19
2018-06-09T09:44:24.367Z,48.80
2018-06-09T09:45:24.638Z,48.22
2018-06-09T09:46:24.688Z,47.75
2018-06-09T09:47:24.756Z,47.27
2018-06-09T09:48:24.867Z,46.88
2018-06-09T09:49:24.974Z,47.36
2018-06-09T09:50:25.159Z,48.05
2018-06-09T09:51:25.231Z,47.58
2018-06-09T09:52:25.297Z,46.89
2018-06-09T09:53:25.327Z,46.50
2018-06-09T09:54:25.438Z,45.92
2018-06-09T09:55:25.535Z,45.45
2018-06-09T09:56:25.647Z,45.51
2018-06-09T09:57:25.936Z,46.58
2018-06-09T09:58:25.965Z,47.27
2018-06-09T09:59:26.124Z,47.24
2018-06-09T10:00:26.352Z,47.92
2018-06-09T10:01:26.307Z,48.22
2018-06-09T10:02:26.533Z,47.92
2018-06-09T10:03:26.592Z,47.46
2018-06-09T10:04:26.674Z,46.88
2018-06-09T10:05:26.841Z,46.48
2018-06-09T10:06:26.828Z,46.60
2018-06-09T10:07:26.958Z,46.01
2018-06-09T10:08:27.105Z,45.90
2018-06-09T10:09:27.236Z,45.70
2018-06-09T10:10:27.519Z,46.48
2018-06-09T10:11:27.540Z,46.78
2018-06-09T10:12:27.686Z,46.36
2018-06-09T10:13:27.799Z,47.05
2018-06-09T10:14:28.030Z,47.36
2018-06-09T10:15:28.019Z,46.78
2018-06-09T10:16:28.446Z,46.58
2018-06-09T10:17:28.259Z,46.50
2018-06-09T10:18:28.376Z,44.74
2018-06-09T10:19:28.492Z,43.87
2018-06-09T10:20:28.714Z,44.18
2018-06-09T10:21:28.699Z,43.89
2018-06-09T10:22:28.819Z,43.91
2018-06-09T10:23:28.920Z,45.57
2018-06-09T10:24:29.047Z,44.40
2018-06-09T10:25:29.159Z,43.91
2018-06-09T10:26:29.290Z,43.71
2018-06-09T10:27:29.395Z,43.01
2018-06-09T10:28:29.507Z,43.23
2018-06-09T10:29:29.624Z,42.05
2018-06-09T10:30:29.752Z,41.56
2018-06-09T10:31:29.863Z,42.35
2018-06-09T10:32:29.973Z,41.76
2018-06-09T10:33:30.090Z,41.66
2018-06-09T10:34:30.199Z,41.56
2018-06-09T10:35:30.298Z,42.05
2018-06-09T10:36:30.423Z,41.66
2018-06-09T10:37:30.538Z,42.25
2018-06-09T10:38:30.652Z,42.64
2018-06-09T10:39:30.764Z,42.03
2018-06-09T10:40:30.880Z,41.74
2018-06-09T10:41:30.989Z,41.76
2018-06-09T10:42:31.101Z,42.27
2018-06-09T10:43:31.209Z,41.78
2018-06-09T10:44:31.322Z,43.15
2018-06-09T10:45:31.437Z,41.97
2018-06-09T10:46:31.554Z,42.05
2018-06-09T10:47:31.664Z,42.93
2018-06-09T10:48:31.775Z,42.35
2018-06-09T10:49:31.890Z,41.66
2018-06-09T10:50:32.003Z,41.49
2018-06-09T10:51:32.103Z,41.17
2018-06-09T10:52:32.212Z,41.54
2018-06-09T10:53:32.320Z,41.25
2018-06-09T10:54:32.436Z,40.95
2018-06-09T10:55:32.555Z,41.07
2018-06-09T10:56:32.657Z,41.25
2018-06-09T10:57:32.784Z,42.21
2018-06-09T10:58:32.876Z,42.21
2018-06-09T10:59:32.989Z,42.81
2018-06-09T11:00:33.100Z,41.64
2018-06-09T11:01:33.210Z,42.74
2018-06-09T11:02:33.324Z,40.17
2018-06-09T11:03:33.435Z,40.56
2018-06-09T11:04:33.543Z,40.86
2018-06-09T11:05:33.655Z,41.46
2018-06-09T11:06:33.760Z,40.58
2018-06-09T11:07:33.867Z,39.90
2018-06-09T11:08:33.980Z,38.94
2018-06-09T11:09:34.089Z,38.34
2018-06-09T11:10:34.203Z,38.53
2018-06-09T11:11:34.313Z,38.82
2018-06-09T11:12:34.478Z,38.90
2018-06-09T11:13:34.581Z,38.71
2018-06-09T11:14:34.680Z,39.12
2018-06-09T11:15:34.793Z,39.22
2018-06-09T11:16:34.901Z,37.77
2018-06-09T11:17:35.012Z,36.10
2018-06-09T11:18:35.121Z,36.79
2018-06-09T11:19:35.236Z,37.67
2018-06-09T11:20:35.348Z,36.79
2018-06-09T11:21:35.458Z,36.77
2018-06-09T11:22:35.572Z,38.63
2018-06-09T11:23:35.720Z,38.65
2018-06-09T11:24:35.833Z,38.57
2018-06-09T11:25:35.944Z,38.35
2018-06-09T11:26:36.057Z,38.65
2018-06-09T11:27:36.169Z,38.16
2018-06-09T11:28:36.276Z,38.37
2018-06-09T11:29:36.390Z,38.26
2018-06-09T11:30:36.500Z,37.47
2018-06-09T11:31:36.610Z,37.08
2018-06-09T11:32:36.721Z,36.71
2018-06-09T11:33:36.834Z,35.65
2018-06-09T11:34:36.947Z,35.94
2018-06-09T11:35:37.058Z,36.84
2018-06-09T11:36:37.170Z,36.55
2018-06-09T11:37:37.284Z,37.35
2018-06-09T11:38:37.397Z,36.18
2018-06-09T11:39:37.507Z,35.10
2018-06-09T11:40:37.620Z,34.80
2018-06-09T11:41:37.733Z,34.03
2018-06-09T11:42:37.842Z,34.13
2018-06-09T11:43:37.958Z,34.03
2018-06-09T11:44:38.065Z,34.62
2018-06-09T11:45:38.200Z,36.09
2018-06-09T11:46:38.312Z,36.78
2018-06-09T11:47:38.423Z,35.60
2018-06-09T11:48:38.537Z,36.09
2018-06-09T11:49:38.645Z,35.60
2018-06-09T11:50:38.758Z,36.98
2018-06-09T11:51:38.871Z,34.81
2018-06-09T11:52:38.982Z,34.98
2018-06-09T11:53:39.114Z,35.08
2018-06-09T11:54:39.226Z,34.61
2018-06-09T11:55:39.336Z,35.39
2018-06-09T11:56:39.453Z,35.99
2018-06-09T11:57:39.549Z,36.09
2018-06-09T11:58:39.710Z,36.51
2018-06-09T11:59:39.772Z,36.09
2018-06-09T12:00:39.886Z,36.09
2018-06-09T12:01:40.021Z,36.96
2018-06-09T12:02:40.112Z,36.96
2018-06-09T12:03:40.223Z,37.15
2018-06-09T12:04:40.338Z,37.54
2018-06-09T12:05:40.488Z,36.63
2018-06-09T12:06:40.564Z,36.84
2018-06-09T12:07:40.678Z,37.02
2018-06-09T12:08:40.788Z,37.21
2018-06-09T12:09:40.901Z,37.12
2018-06-09T12:10:41.013Z,37.02
2018-06-09T12:11:41.124Z,37.81
2018-06-09T12:12:41.239Z,36.90
2018-06-09T12:13:41.356Z,37.81
2018-06-09T12:14:41.463Z,37.63
2018-06-09T12:15:41.574Z,37.71
2018-06-09T12:16:41.688Z,37.82
2018-06-09T12:17:42.726Z,35.96
2018-06-09T12:18:41.894Z,35.76
2018-06-09T12:19:42.021Z,35.68
2018-06-09T12:20:42.401Z,35.99
2018-06-09T12:21:42.333Z,35.70
2018-06-09T12:22:42.508Z,35.60
2018-06-09T12:23:42.718Z,36.01
2018-06-09T12:24:42.822Z,36.30
2018-06-09T12:25:43.255Z,35.72
2018-06-09T12:26:43.207Z,35.72
2018-06-09T12:27:43.480Z,35.70
2018-06-09T12:28:43.413Z,36.76
2018-06-09T12:29:43.404Z,37.07
2018-06-09T12:30:43.787Z,37.17
2018-06-09T12:31:43.693Z,37.07
2018-06-09T12:32:43.837Z,37.68
2018-06-09T12:33:44.249Z,36.29
2018-06-09T12:34:44.220Z,36.76
2018-06-09T12:35:44.228Z,37.13
2018-06-09T12:36:44.788Z,38.21
2018-06-09T12:37:44.482Z,38.12
2018-06-09T12:38:44.722Z,38.00
2018-06-09T12:39:45.143Z,38.08
2018-06-09T12:40:44.898Z,38.08
2018-06-09T12:41:45.036Z,38.39
2018-06-09T12:42:45.286Z,38.37
2018-06-09T12:43:45.419Z,38.10
2018-06-09T12:44:45.189Z,37.61
2018-06-09T12:45:45.364Z,37.41
2018-06-09T12:46:45.368Z,36.82
2018-06-09T12:47:46.025Z,35.96
2018-06-09T12:48:45.628Z,36.18
2018-06-09T12:49:45.746Z,36.18
2018-06-09T12:50:45.901Z,35.97
2018-06-09T12:51:46.267Z,35.88
2018-06-09T12:52:46.319Z,35.39
2018-06-09T12:53:46.281Z,35.86